Main page
METAR-TAF:

METAR-TAF

Airports :

Teruel, Spain

Teruel Airport

latitude: 40-24-43N, longitude: 01-13-03W, elevation: 1030 m

Current weather observation

The report was made 18 minutes ago, at 16:30 UTC
Wind 8 kt from the West, varying between South and North/Northwest
Temperature 31°C
Humidity 13%
Pressure 1017 hPa
Visibility 10 km or more

METAR: LETL 221630Z AUTO 27008KT 190V340 9999 NCD 31/M01 Q1017

Time: 18:48 (16:48 UTC)


TAF: missing

Weather observations and forecasts of more than 4000 airports (METAR and TAF reports).

The available stations are represented by yellow and red dots on the map.

Hover mouse over dot to see the name of the station.

Then click to see weather observations and forecasts.

To change the map : click on the green buttons with a black cross to zoom in, on the green button with a dash to zoom out, or on the green arrows for adjacent maps.


METAR-TAF: